sensor_id;sensor_type;location;lat;lon;timestamp;P1;durP1;ratioP1;P2;durP2;ratioP2
59161;SDS011;44942;48.936;8.260;2023-03-21T00:02:46;6.73;;;4.47;;
59161;SDS011;44942;48.936;8.260;2023-03-21T00:07:47;6.87;;;4.53;;
59161;SDS011;44942;48.936;8.260;2023-03-21T00:12:47;6.20;;;4.43;;
59161;SDS011;44942;48.936;8.260;2023-03-21T00:17:57;6.10;;;4.35;;
59161;SDS011;44942;48.936;8.260;2023-03-21T00:23:02;6.07;;;4.07;;
59161;SDS011;44942;48.936;8.260;2023-03-21T00:28:03;5.97;;;3.92;;
59161;SDS011;44942;48.936;8.260;2023-03-21T00:33:04;6.93;;;4.10;;
59161;SDS011;44942;48.936;8.260;2023-03-21T00:38:04;5.17;;;3.67;;
59161;SDS011;44942;48.936;8.260;2023-03-21T00:43:05;6.20;;;3.80;;
59161;SDS011;44942;48.936;8.260;2023-03-21T00:48:06;6.00;;;4.00;;
59161;SDS011;44942;48.936;8.260;2023-03-21T00:53:07;4.68;;;3.35;;
59161;SDS011;44942;48.936;8.260;2023-03-21T00:58:08;5.10;;;3.90;;
59161;SDS011;44942;48.936;8.260;2023-03-21T01:03:10;4.57;;;3.50;;
59161;SDS011;44942;48.936;8.260;2023-03-21T01:08:14;6.05;;;3.83;;
59161;SDS011;44942;48.936;8.260;2023-03-21T01:13:16;5.68;;;3.70;;
59161;SDS011;44942;48.936;8.260;2023-03-21T01:18:20;5.53;;;3.78;;
59161;SDS011;44942;48.936;8.260;2023-03-21T01:23:24;4.00;;;3.10;;
59161;SDS011;44942;48.936;8.260;2023-03-21T01:28:27;4.22;;;3.20;;
59161;SDS011;44942;48.936;8.260;2023-03-21T01:33:28;4.15;;;3.30;;
59161;SDS011;44942;48.936;8.260;2023-03-21T01:43:31;4.40;;;3.10;;
59161;SDS011;44942;48.936;8.260;2023-03-21T01:48:35;3.90;;;2.88;;
59161;SDS011;44942;48.936;8.260;2023-03-21T01:53:38;4.57;;;2.83;;
59161;SDS011;44942;48.936;8.260;2023-03-21T01:58:40;4.05;;;2.92;;
59161;SDS011;44942;48.936;8.260;2023-03-21T02:08:51;4.40;;;2.70;;
59161;SDS011;44942;48.936;8.260;2023-03-21T02:13:52;3.65;;;2.88;;
59161;SDS011;44942;48.936;8.260;2023-03-21T02:35:33;3.17;;;2.53;;
59161;SDS011;44942;48.936;8.260;2023-03-21T02:41:02;5.63;;;2.75;;
59161;SDS011;44942;48.936;8.260;2023-03-21T02:46:25;3.25;;;2.53;;
59161;SDS011;44942;48.936;8.260;2023-03-21T02:51:33;3.00;;;2.40;;
59161;SDS011;44942;48.936;8.260;2023-03-21T02:56:38;2.33;;;2.00;;
59161;SDS011;44942;48.936;8.260;2023-03-21T03:01:40;3.17;;;2.42;;
59161;SDS011;44942;48.936;8.260;2023-03-21T03:06:48;3.55;;;2.55;;
59161;SDS011;44942;48.936;8.260;2023-03-21T03:12:21;2.85;;;2.20;;
59161;SDS011;44942;48.936;8.260;2023-03-21T03:23:06;2.42;;;2.15;;
59161;SDS011;44942;48.936;8.260;2023-03-21T03:28:12;3.03;;;2.13;;
59161;SDS011;44942;48.936;8.260;2023-03-21T03:33:17;2.70;;;2.22;;
59161;SDS011;44942;48.936;8.260;2023-03-21T03:38:22;3.20;;;2.05;;
59161;SDS011;44942;48.936;8.260;2023-03-21T03:43:31;2.55;;;2.15;;
59161;SDS011;44942;48.936;8.260;2023-03-21T03:48:40;2.22;;;2.00;;
59161;SDS011;44942;48.936;8.260;2023-03-21T03:58:56;2.95;;;1.95;;
59161;SDS011;44942;48.936;8.260;2023-03-21T04:03:57;2.50;;;2.10;;
59161;SDS011;44942;48.936;8.260;2023-03-21T04:08:59;2.47;;;1.98;;
59161;SDS011;44942;48.936;8.260;2023-03-21T04:14:00;1.90;;;1.70;;
59161;SDS011;44942;48.936;8.260;2023-03-21T04:19:00;2.73;;;2.10;;
59161;SDS011;44942;48.936;8.260;2023-03-21T04:24:01;2.63;;;1.83;;
59161;SDS011;44942;48.936;8.260;2023-03-21T04:29:02;2.30;;;2.10;;
59161;SDS011;44942;48.936;8.260;2023-03-21T04:34:04;2.00;;;1.80;;
59161;SDS011;44942;48.936;8.260;2023-03-21T04:39:08;2.35;;;1.92;;
59161;SDS011;44942;48.936;8.260;2023-03-21T04:44:12;2.33;;;1.88;;
59161;SDS011;44942;48.936;8.260;2023-03-21T04:49:14;2.00;;;1.63;;
59161;SDS011;44942;48.936;8.260;2023-03-21T04:54:15;2.30;;;1.90;;
59161;SDS011;44942;48.936;8.260;2023-03-21T04:59:16;1.97;;;1.60;;
59161;SDS011;44942;48.936;8.260;2023-03-21T05:09:18;2.97;;;1.60;;
59161;SDS011;44942;48.936;8.260;2023-03-21T05:14:23;2.28;;;1.60;;
59161;SDS011;44942;48.936;8.260;2023-03-21T05:19:26;2.38;;;1.92;;
59161;SDS011;44942;48.936;8.260;2023-03-21T05:24:35;2.00;;;1.60;;
59161;SDS011;44942;48.936;8.260;2023-03-21T05:29:38;3.45;;;1.60;;
59161;SDS011;44942;48.936;8.260;2023-03-21T05:34:38;1.70;;;1.50;;
59161;SDS011;44942;48.936;8.260;2023-03-21T05:39:39;2.50;;;1.60;;
59161;SDS011;44942;48.936;8.260;2023-03-21T05:44:39;1.70;;;1.60;;
59161;SDS011;44942;48.936;8.260;2023-03-21T05:49:40;3.40;;;1.80;;
59161;SDS011;44942;48.936;8.260;2023-03-21T05:54:41;2.03;;;1.60;;
59161;SDS011;44942;48.936;8.260;2023-03-21T05:59:41;2.03;;;1.55;;
59161;SDS011;44942;48.936;8.260;2023-03-21T06:04:42;2.13;;;1.50;;
59161;SDS011;44942;48.936;8.260;2023-03-21T06:09:43;2.95;;;1.58;;
59161;SDS011;44942;48.936;8.260;2023-03-21T06:14:43;5.40;;;2.00;;
59161;SDS011;44942;48.936;8.260;2023-03-21T06:19:44;2.10;;;1.77;;
59161;SDS011;44942;48.936;8.260;2023-03-21T06:24:45;3.20;;;1.60;;
59161;SDS011;44942;48.936;8.260;2023-03-21T06:29:45;3.40;;;1.80;;
59161;SDS011;44942;48.936;8.260;2023-03-21T06:34:46;3.03;;;1.70;;
59161;SDS011;44942;48.936;8.260;2023-03-21T06:39:46;10.80;;;1.60;;
59161;SDS011;44942;48.936;8.260;2023-03-21T06:44:47;14.20;;;2.33;;
59161;SDS011;44942;48.936;8.260;2023-03-21T06:49:47;11.23;;;1.90;;
59161;SDS011;44942;48.936;8.260;2023-03-21T06:54:48;6.73;;;1.80;;
59161;SDS011;44942;48.936;8.260;2023-03-21T06:59:50;6.70;;;1.80;;
59161;SDS011;44942;48.936;8.260;2023-03-21T07:04:50;3.50;;;1.40;;
59161;SDS011;44942;48.936;8.260;2023-03-21T07:09:51;5.90;;;1.93;;
59161;SDS011;44942;48.936;8.260;2023-03-21T07:14:51;8.10;;;1.70;;
59161;SDS011;44942;48.936;8.260;2023-03-21T07:19:52;5.70;;;1.87;;
59161;SDS011;44942;48.936;8.260;2023-03-21T07:24:52;5.37;;;1.90;;
59161;SDS011;44942;48.936;8.260;2023-03-21T07:29:53;6.20;;;1.80;;
59161;SDS011;44942;48.936;8.260;2023-03-21T07:34:54;3.13;;;1.60;;
59161;SDS011;44942;48.936;8.260;2023-03-21T07:39:55;86.75;;;7.68;;
59161;SDS011;44942;48.936;8.260;2023-03-21T07:44:55;9.63;;;2.00;;
59161;SDS011;44942;48.936;8.260;2023-03-21T07:49:56;9.07;;;2.20;;
59161;SDS011;44942;48.936;8.260;2023-03-21T07:54:56;4.70;;;1.90;;
59161;SDS011;44942;48.936;8.260;2023-03-21T07:59:57;6.90;;;2.10;;
59161;SDS011;44942;48.936;8.260;2023-03-21T08:04:57;9.27;;;2.50;;
59161;SDS011;44942;48.936;8.260;2023-03-21T08:09:58;4.63;;;2.10;;
59161;SDS011;44942;48.936;8.260;2023-03-21T08:14:59;3.97;;;2.03;;
59161;SDS011;44942;48.936;8.260;2023-03-21T08:19:59;5.72;;;1.88;;
59161;SDS011;44942;48.936;8.260;2023-03-21T08:25:00;5.70;;;1.97;;
59161;SDS011;44942;48.936;8.260;2023-03-21T08:30:04;4.38;;;1.77;;
59161;SDS011;44942;48.936;8.260;2023-03-21T08:40:11;3.75;;;1.80;;
59161;SDS011;44942;48.936;8.260;2023-03-21T08:45:15;4.25;;;2.03;;
59161;SDS011;44942;48.936;8.260;2023-03-21T08:50:17;3.38;;;1.90;;
59161;SDS011;44942;48.936;8.260;2023-03-21T08:55:19;3.50;;;1.92;;
59161;SDS011;44942;48.936;8.260;2023-03-21T09:00:20;3.70;;;1.97;;
59161;SDS011;44942;48.936;8.260;2023-03-21T09:05:21;3.28;;;1.58;;
59161;SDS011;44942;48.936;8.260;2023-03-21T09:10:22;3.03;;;1.80;;
59161;SDS011;44942;48.936;8.260;2023-03-21T09:15:25;5.73;;;1.83;;
59161;SDS011;44942;48.936;8.260;2023-03-21T09:20:27;4.75;;;1.70;;
59161;SDS011;44942;48.936;8.260;2023-03-21T09:25:31;2.70;;;1.70;;
59161;SDS011;44942;48.936;8.260;2023-03-21T09:30:33;2.80;;;1.67;;
59161;SDS011;44942;48.936;8.260;2023-03-21T09:35:35;2.63;;;1.50;;
59161;SDS011;44942;48.936;8.260;2023-03-21T09:46:00;2.97;;;1.67;;
59161;SDS011;44942;48.936;8.260;2023-03-21T09:51:18;2.05;;;1.33;;
59161;SDS011;44942;48.936;8.260;2023-03-21T09:56:21;3.08;;;1.75;;
59161;SDS011;44942;48.936;8.260;2023-03-21T10:01:24;2.78;;;1.67;;
59161;SDS011;44942;48.936;8.260;2023-03-21T10:06:28;2.65;;;1.38;;
59161;SDS011;44942;48.936;8.260;2023-03-21T10:11:31;3.20;;;1.73;;
59161;SDS011;44942;48.936;8.260;2023-03-21T10:16:49;2.15;;;1.55;;
59161;SDS011;44942;48.936;8.260;2023-03-21T10:21:55;1.93;;;1.40;;
59161;SDS011;44942;48.936;8.260;2023-03-21T10:26:56;2.07;;;1.50;;
59161;SDS011;44942;48.936;8.260;2023-03-21T10:31:57;3.33;;;1.50;;
59161;SDS011;44942;48.936;8.260;2023-03-21T10:37:01;2.58;;;1.30;;
59161;SDS011;44942;48.936;8.260;2023-03-21T10:42:03;1.70;;;1.23;;
59161;SDS011;44942;48.936;8.260;2023-03-21T10:47:05;1.70;;;1.23;;
59161;SDS011;44942;48.936;8.260;2023-03-21T10:52:08;1.70;;;1.27;;
59161;SDS011;44942;48.936;8.260;2023-03-21T10:57:12;1.67;;;1.33;;
59161;SDS011;44942;48.936;8.260;2023-03-21T11:02:25;2.27;;;1.53;;
59161;SDS011;44942;48.936;8.260;2023-03-21T11:07:30;1.27;;;1.13;;
59161;SDS011;44942;48.936;8.260;2023-03-21T11:12:32;1.48;;;1.23;;
59161;SDS011;44942;48.936;8.260;2023-03-21T11:17:38;1.67;;;1.20;;
59161;SDS011;44942;48.936;8.260;2023-03-21T11:22:39;2.85;;;1.25;;
59161;SDS011;44942;48.936;8.260;2023-03-21T11:27:52;1.40;;;1.20;;
59161;SDS011;44942;48.936;8.260;2023-03-21T11:32:54;1.95;;;1.50;;
59161;SDS011;44942;48.936;8.260;2023-03-21T11:37:57;2.83;;;1.40;;
59161;SDS011;44942;48.936;8.260;2023-03-21T11:48:00;2.00;;;1.30;;
59161;SDS011;44942;48.936;8.260;2023-03-21T11:53:20;1.45;;;1.20;;
59161;SDS011;44942;48.936;8.260;2023-03-21T11:58:44;1.55;;;1.30;;
59161;SDS011;44942;48.936;8.260;2023-03-21T12:15:00;1.30;;;1.10;;
59161;SDS011;44942;48.936;8.260;2023-03-21T12:25:41;1.27;;;1.17;;
59161;SDS011;44942;48.936;8.260;2023-03-21T12:31:08;1.15;;;0.98;;
59161;SDS011;44942;48.936;8.260;2023-03-21T12:51:47;2.03;;;1.00;;
59161;SDS011;44942;48.936;8.260;2023-03-21T12:56:53;1.10;;;1.00;;
59161;SDS011;44942;48.936;8.260;2023-03-21T13:02:09;1.40;;;0.90;;
59161;SDS011;44942;48.936;8.260;2023-03-21T13:07:19;1.60;;;1.10;;
59161;SDS011;44942;48.936;8.260;2023-03-21T13:13:10;0.95;;;0.85;;
59161;SDS011;44942;48.936;8.260;2023-03-21T13:17:55;1.35;;;1.00;;
59161;SDS011;44942;48.936;8.260;2023-03-21T13:23:03;1.65;;;1.00;;
59161;SDS011;44942;48.936;8.260;2023-03-21T13:28:05;12.52;;;3.63;;
59161;SDS011;44942;48.936;8.260;2023-03-21T13:33:06;16.40;;;5.40;;
59161;SDS011;44942;48.936;8.260;2023-03-21T13:38:15;21.02;;;8.00;;
59161;SDS011;44942;48.936;8.260;2023-03-21T13:48:55;22.88;;;8.80;;
59161;SDS011;44942;48.936;8.260;2023-03-21T13:59:08;19.45;;;8.10;;
59161;SDS011;44942;48.936;8.260;2023-03-21T14:04:15;22.00;;;8.15;;
59161;SDS011;44942;48.936;8.260;2023-03-21T14:14:33;18.73;;;7.60;;
59161;SDS011;44942;48.936;8.260;2023-03-21T14:19:37;16.95;;;8.50;;
59161;SDS011;44942;48.936;8.260;2023-03-21T14:24:38;17.27;;;7.80;;
59161;SDS011;44942;48.936;8.260;2023-03-21T14:29:40;17.25;;;7.65;;
59161;SDS011;44942;48.936;8.260;2023-03-21T14:34:41;17.05;;;7.25;;
59161;SDS011;44942;48.936;8.260;2023-03-21T14:39:47;16.75;;;6.85;;
59161;SDS011;44942;48.936;8.260;2023-03-21T14:44:57;12.13;;;6.40;;
59161;SDS011;44942;48.936;8.260;2023-03-21T14:49:59;12.93;;;5.78;;
59161;SDS011;44942;48.936;8.260;2023-03-21T14:55:00;15.07;;;5.47;;
59161;SDS011;44942;48.936;8.260;2023-03-21T15:00:05;16.25;;;5.78;;
59161;SDS011;44942;48.936;8.260;2023-03-21T15:05:17;14.02;;;5.15;;
59161;SDS011;44942;48.936;8.260;2023-03-21T15:10:23;11.25;;;5.40;;
59161;SDS011;44942;48.936;8.260;2023-03-21T15:15:26;11.95;;;5.70;;
59161;SDS011;44942;48.936;8.260;2023-03-21T15:20:29;13.02;;;5.40;;
59161;SDS011;44942;48.936;8.260;2023-03-21T15:25:33;12.77;;;5.10;;
59161;SDS011;44942;48.936;8.260;2023-03-21T15:30:35;10.13;;;4.70;;
59161;SDS011;44942;48.936;8.260;2023-03-21T15:35:39;11.10;;;4.80;;
59161;SDS011;44942;48.936;8.260;2023-03-21T15:40:43;10.30;;;4.45;;
59161;SDS011;44942;48.936;8.260;2023-03-21T15:50:48;8.65;;;4.63;;
59161;SDS011;44942;48.936;8.260;2023-03-21T15:55:56;9.95;;;4.15;;
59161;SDS011;44942;48.936;8.260;2023-03-21T16:01:02;8.15;;;4.05;;
59161;SDS011;44942;48.936;8.260;2023-03-21T16:06:41;8.98;;;3.75;;
59161;SDS011;44942;48.936;8.260;2023-03-21T16:11:57;9.63;;;4.00;;
59161;SDS011;44942;48.936;8.260;2023-03-21T16:16:58;7.25;;;4.13;;
59161;SDS011;44942;48.936;8.260;2023-03-21T16:21:59;11.32;;;4.10;;
59161;SDS011;44942;48.936;8.260;2023-03-21T16:27:00;8.33;;;4.03;;
59161;SDS011;44942;48.936;8.260;2023-03-21T16:32:05;7.03;;;3.75;;
59161;SDS011;44942;48.936;8.260;2023-03-21T16:37:11;7.70;;;3.78;;
59161;SDS011;44942;48.936;8.260;2023-03-21T16:42:14;10.50;;;3.95;;
59161;SDS011;44942;48.936;8.260;2023-03-21T16:47:16;6.20;;;3.67;;
59161;SDS011;44942;48.936;8.260;2023-03-21T16:52:18;7.55;;;3.63;;
59161;SDS011;44942;48.936;8.260;2023-03-21T16:57:25;7.07;;;3.50;;
59161;SDS011;44942;48.936;8.260;2023-03-21T17:02:27;7.53;;;3.45;;
59161;SDS011;44942;48.936;8.260;2023-03-21T17:07:28;7.83;;;3.37;;
59161;SDS011;44942;48.936;8.260;2023-03-21T17:12:29;6.63;;;3.70;;
59161;SDS011;44942;48.936;8.260;2023-03-21T17:17:29;6.87;;;3.47;;
59161;SDS011;44942;48.936;8.260;2023-03-21T17:22:30;6.40;;;3.50;;
59161;SDS011;44942;48.936;8.260;2023-03-21T17:27:30;7.63;;;3.57;;
59161;SDS011;44942;48.936;8.260;2023-03-21T17:32:31;7.13;;;3.67;;
59161;SDS011;44942;48.936;8.260;2023-03-21T17:37:32;11.90;;;3.90;;
59161;SDS011;44942;48.936;8.260;2023-03-21T17:42:33;7.35;;;3.58;;
59161;SDS011;44942;48.936;8.260;2023-03-21T17:47:33;6.27;;;3.20;;
59161;SDS011;44942;48.936;8.260;2023-03-21T17:52:34;6.97;;;2.80;;
59161;SDS011;44942;48.936;8.260;2023-03-21T17:57:36;5.30;;;2.70;;
59161;SDS011;44942;48.936;8.260;2023-03-21T18:02:40;16.88;;;3.40;;
59161;SDS011;44942;48.936;8.260;2023-03-21T18:07:44;13.20;;;3.38;;
59161;SDS011;44942;48.936;8.260;2023-03-21T18:12:45;11.48;;;3.22;;
59161;SDS011;44942;48.936;8.260;2023-03-21T18:17:46;8.57;;;3.30;;
59161;SDS011;44942;48.936;8.260;2023-03-21T18:22:48;8.20;;;3.58;;
59161;SDS011;44942;48.936;8.260;2023-03-21T18:27:50;10.40;;;2.85;;
59161;SDS011;44942;48.936;8.260;2023-03-21T18:32:50;5.60;;;2.90;;
59161;SDS011;44942;48.936;8.260;2023-03-21T18:37:51;5.07;;;2.93;;
59161;SDS011;44942;48.936;8.260;2023-03-21T18:42:51;6.60;;;2.90;;
59161;SDS011;44942;48.936;8.260;2023-03-21T18:47:52;17.70;;;3.53;;
59161;SDS011;44942;48.936;8.260;2023-03-21T18:52:52;10.87;;;2.90;;
59161;SDS011;44942;48.936;8.260;2023-03-21T18:57:53;6.20;;;2.90;;
59161;SDS011;44942;48.936;8.260;2023-03-21T19:02:54;8.30;;;2.92;;
59161;SDS011;44942;48.936;8.260;2023-03-21T19:07:56;6.07;;;2.63;;
59161;SDS011;44942;48.936;8.260;2023-03-21T19:12:57;5.50;;;2.87;;
59161;SDS011;44942;48.936;8.260;2023-03-21T19:17:57;9.33;;;3.07;;
59161;SDS011;44942;48.936;8.260;2023-03-21T19:22:58;4.38;;;2.78;;
59161;SDS011;44942;48.936;8.260;2023-03-21T19:27:59;9.63;;;3.67;;
59161;SDS011;44942;48.936;8.260;2023-03-21T19:33:00;11.30;;;5.80;;
59161;SDS011;44942;48.936;8.260;2023-03-21T19:38:00;13.45;;;8.18;;
59161;SDS011;44942;48.936;8.260;2023-03-21T19:43:02;9.88;;;6.40;;
59161;SDS011;44942;48.936;8.260;2023-03-21T19:48:03;6.97;;;4.80;;
59161;SDS011;44942;48.936;8.260;2023-03-21T19:53:04;27.67;;;5.43;;
59161;SDS011;44942;48.936;8.260;2023-03-21T19:58:04;11.20;;;4.97;;
59161;SDS011;44942;48.936;8.260;2023-03-21T20:08:07;8.77;;;3.95;;
59161;SDS011;44942;48.936;8.260;2023-03-21T20:13:08;8.13;;;4.77;;
59161;SDS011;44942;48.936;8.260;2023-03-21T20:18:08;8.13;;;4.47;;
59161;SDS011;44942;48.936;8.260;2023-03-21T20:23:09;7.90;;;3.50;;
59161;SDS011;44942;48.936;8.260;2023-03-21T20:28:11;7.90;;;5.47;;
59161;SDS011;44942;48.936;8.260;2023-03-21T20:33:12;7.70;;;5.13;;
59161;SDS011;44942;48.936;8.260;2023-03-21T20:38:14;7.90;;;4.40;;
59161;SDS011;44942;48.936;8.260;2023-03-21T20:43:19;8.88;;;5.28;;
59161;SDS011;44942;48.936;8.260;2023-03-21T20:48:20;9.38;;;5.15;;
59161;SDS011;44942;48.936;8.260;2023-03-21T20:53:20;7.67;;;4.60;;
59161;SDS011;44942;48.936;8.260;2023-03-21T20:58:21;6.03;;;4.27;;
59161;SDS011;44942;48.936;8.260;2023-03-21T21:03:22;7.05;;;4.07;;
59161;SDS011;44942;48.936;8.260;2023-03-21T21:08:23;6.38;;;4.07;;
59161;SDS011;44942;48.936;8.260;2023-03-21T21:13:24;5.55;;;4.00;;
59161;SDS011;44942;48.936;8.260;2023-03-21T21:18:25;8.20;;;4.07;;
59161;SDS011;44942;48.936;8.260;2023-03-21T21:23:27;7.05;;;3.67;;
59161;SDS011;44942;48.936;8.260;2023-03-21T21:28:28;6.57;;;5.43;;
59161;SDS011;44942;48.936;8.260;2023-03-21T21:33:30;6.80;;;6.10;;
59161;SDS011;44942;48.936;8.260;2023-03-21T21:38:33;7.07;;;5.90;;
59161;SDS011;44942;48.936;8.260;2023-03-21T21:43:34;8.88;;;5.85;;
59161;SDS011;44942;48.936;8.260;2023-03-21T21:48:35;6.63;;;5.27;;
59161;SDS011;44942;48.936;8.260;2023-03-21T21:53:36;5.35;;;4.72;;
59161;SDS011;44942;48.936;8.260;2023-03-21T21:58:37;5.57;;;4.53;;
59161;SDS011;44942;48.936;8.260;2023-03-21T22:03:45;5.65;;;4.53;;
59161;SDS011;44942;48.936;8.260;2023-03-21T22:08:46;4.85;;;3.90;;
59161;SDS011;44942;48.936;8.260;2023-03-21T22:13:50;4.40;;;3.70;;
59161;SDS011;44942;48.936;8.260;2023-03-21T22:18:51;4.90;;;3.70;;
59161;SDS011;44942;48.936;8.260;2023-03-21T22:23:52;4.43;;;3.73;;
59161;SDS011;44942;48.936;8.260;2023-03-21T22:28:52;4.77;;;3.70;;
59161;SDS011;44942;48.936;8.260;2023-03-21T22:33:53;4.10;;;3.70;;
59161;SDS011;44942;48.936;8.260;2023-03-21T22:38:53;4.10;;;3.70;;
59161;SDS011;44942;48.936;8.260;2023-03-21T22:43:54;4.13;;;3.30;;
59161;SDS011;44942;48.936;8.260;2023-03-21T22:48:55;3.57;;;3.17;;
59161;SDS011;44942;48.936;8.260;2023-03-21T22:53:55;4.30;;;3.60;;
59161;SDS011;44942;48.936;8.260;2023-03-21T22:58:56;4.47;;;3.03;;
59161;SDS011;44942;48.936;8.260;2023-03-21T23:03:59;3.70;;;3.17;;
59161;SDS011;44942;48.936;8.260;2023-03-21T23:08:59;3.30;;;3.00;;
59161;SDS011;44942;48.936;8.260;2023-03-21T23:14:00;4.85;;;3.25;;
59161;SDS011;44942;48.936;8.260;2023-03-21T23:19:01;4.53;;;3.00;;
59161;SDS011;44942;48.936;8.260;2023-03-21T23:24:03;3.15;;;2.80;;
59161;SDS011;44942;48.936;8.260;2023-03-21T23:29:05;4.10;;;3.60;;
59161;SDS011;44942;48.936;8.260;2023-03-21T23:34:10;4.32;;;3.92;;
59161;SDS011;44942;48.936;8.260;2023-03-21T23:39:11;5.65;;;4.00;;
59161;SDS011;44942;48.936;8.260;2023-03-21T23:44:12;4.35;;;3.92;;
59161;SDS011;44942;48.936;8.260;2023-03-21T23:49:12;4.33;;;3.93;;
59161;SDS011;44942;48.936;8.260;2023-03-21T23:59:15;4.10;;;3.57;;
